createdAt,value
2023-04-27T00:00:16.520Z,2.47
2023-04-27T00:02:45.944Z,2.27
2023-04-27T00:05:14.513Z,2.43
2023-04-27T00:07:42.633Z,3.00
2023-04-27T00:10:11.224Z,2.97
2023-04-27T00:12:39.119Z,2.13
2023-04-27T00:15:08.339Z,2.80
2023-04-27T00:17:37.544Z,2.83
2023-04-27T00:20:10.065Z,3.10
2023-04-27T00:22:37.935Z,2.77
2023-04-27T00:25:06.505Z,2.90
2023-04-27T00:27:34.381Z,2.60
2023-04-27T00:30:02.246Z,2.50
2023-04-27T00:32:30.257Z,2.70
2023-04-27T00:34:58.154Z,2.53
2023-04-27T00:37:30.622Z,2.20
2023-04-27T00:39:58.451Z,2.70
2023-04-27T00:42:26.346Z,2.47
2023-04-27T00:44:54.187Z,2.50
2023-04-27T00:47:22.186Z,2.30
2023-04-27T00:49:50.577Z,2.43
2023-04-27T00:52:18.565Z,2.50
2023-04-27T00:54:49.107Z,2.23
2023-04-27T00:57:17.300Z,2.50
2023-04-27T00:59:46.149Z,2.57
2023-04-27T01:02:15.073Z,2.40
2023-04-27T01:04:44.499Z,2.50
2023-04-27T01:07:13.566Z,2.97
2023-04-27T01:09:41.676Z,2.77
2023-04-27T01:12:11.717Z,2.57
2023-04-27T01:14:39.580Z,2.63
2023-04-27T01:17:08.491Z,2.47
2023-04-27T01:19:40.366Z,3.00
2023-04-27T01:22:08.361Z,2.50
2023-04-27T01:24:37.684Z,2.50
2023-04-27T01:27:06.685Z,2.90
2023-04-27T01:29:34.553Z,2.30
2023-04-27T01:32:03.618Z,2.70
2023-04-27T01:34:31.472Z,3.10
2023-04-27T01:36:59.322Z,2.87
2023-04-27T01:39:27.920Z,2.80
2023-04-27T01:41:58.486Z,2.40
2023-04-27T01:44:26.617Z,2.93
2023-04-27T01:46:55.571Z,3.20
2023-04-27T01:49:23.434Z,2.80
2023-04-27T01:51:51.564Z,2.97
2023-04-27T01:54:19.424Z,3.30
2023-04-27T01:56:47.298Z,3.27
2023-04-27T01:59:16.490Z,3.20
2023-04-27T02:01:44.380Z,3.30
2023-04-27T02:04:12.559Z,2.67
2023-04-27T02:06:41.254Z,3.43
2023-04-27T02:09:09.392Z,3.00
2023-04-27T02:11:40.897Z,3.40
2023-04-27T02:14:08.770Z,3.97
2023-04-27T02:16:38.361Z,3.10
2023-04-27T02:19:06.277Z,3.73
2023-04-27T02:21:34.073Z,3.80
2023-04-27T02:24:02.003Z,4.27
2023-04-27T02:26:30.183Z,4.03
2023-04-27T02:28:59.330Z,3.53
2023-04-27T02:31:28.136Z,4.10
2023-04-27T02:34:00.036Z,4.30
2023-04-27T02:36:27.922Z,4.90
2023-04-27T02:38:56.322Z,4.10
2023-04-27T02:41:24.191Z,4.63
2023-04-27T02:43:52.415Z,4.73
2023-04-27T02:46:20.285Z,4.50
2023-04-27T02:48:48.148Z,5.00
2023-04-27T02:51:17.330Z,4.40
2023-04-27T02:53:45.713Z,4.70
2023-04-27T02:56:13.557Z,5.10
2023-04-27T02:58:41.507Z,5.30
2023-04-27T03:01:09.651Z,5.30
2023-04-27T03:03:37.649Z,4.63
2023-04-27T03:06:06.444Z,4.67
2023-04-27T03:08:38.441Z,5.63
2023-04-27T03:11:06.438Z,6.30
2023-04-27T03:13:41.977Z,5.07
2023-04-27T03:16:11.376Z,5.10
2023-04-27T03:18:40.260Z,5.43
2023-04-27T03:21:09.284Z,5.63
2023-04-27T03:23:38.518Z,5.80
2023-04-27T03:26:09.895Z,5.40
2023-04-27T03:28:37.959Z,5.50
2023-04-27T03:31:07.231Z,5.20
2023-04-27T03:33:35.110Z,5.33
2023-04-27T03:36:04.406Z,5.40
2023-04-27T03:38:32.395Z,5.50
2023-04-27T03:41:01.794Z,5.80
2023-04-27T03:43:29.738Z,5.03
2023-04-27T03:45:57.914Z,5.20
2023-04-27T03:48:25.916Z,5.70
2023-04-27T03:50:55.941Z,5.20
2023-04-27T03:53:23.815Z,4.70
2023-04-27T03:55:52.224Z,5.53
2023-04-27T03:58:21.453Z,4.70
2023-04-27T04:01:10.040Z,3.90
2023-04-27T04:03:38.222Z,5.17
2023-04-27T04:06:09.033Z,4.53
2023-04-27T04:08:37.368Z,4.40
2023-04-27T04:11:05.512Z,4.60
2023-04-27T04:13:36.626Z,4.53
2023-04-27T04:16:05.879Z,5.10
2023-04-27T04:18:34.170Z,5.17
2023-04-27T04:21:02.359Z,5.10
2023-04-27T04:23:30.284Z,5.10
2023-04-27T04:25:58.682Z,5.70
2023-04-27T04:28:30.781Z,5.20
2023-04-27T04:31:02.057Z,4.90
2023-04-27T04:33:29.909Z,5.00
2023-04-27T04:35:59.605Z,4.80
2023-04-27T04:38:27.728Z,4.10
2023-04-27T04:40:55.629Z,4.20
2023-04-27T04:43:23.536Z,5.00
2023-04-27T04:45:51.376Z,4.37
2023-04-27T04:48:24.165Z,4.60
2023-04-27T04:50:51.984Z,4.70
2023-04-27T04:53:19.864Z,4.80
2023-04-27T04:55:47.715Z,3.90
2023-04-27T04:58:15.635Z,4.53
2023-04-27T05:00:43.482Z,5.10
2023-04-27T05:03:11.576Z,5.00
2023-04-27T05:05:40.947Z,4.80
2023-04-27T05:08:08.749Z,4.70
2023-04-27T05:10:36.611Z,5.40
2023-04-27T05:13:06.501Z,5.57
2023-04-27T05:15:34.968Z,5.90
2023-04-27T05:18:02.881Z,6.20
2023-04-27T05:20:30.700Z,5.23
2023-04-27T05:23:00.558Z,4.83
2023-04-27T05:25:31.033Z,5.83
2023-04-27T05:27:58.860Z,5.57
2023-04-27T05:30:27.145Z,5.27
2023-04-27T05:32:54.978Z,5.53
2023-04-27T05:35:22.889Z,5.77
2023-04-27T05:37:50.760Z,5.57
2023-04-27T05:40:20.254Z,5.73
2023-04-27T05:42:48.617Z,5.60
2023-04-27T05:45:16.790Z,5.90
2023-04-27T05:47:44.717Z,5.67
2023-04-27T05:50:12.668Z,5.60
2023-04-27T05:52:40.664Z,5.40
2023-04-27T05:55:09.205Z,4.53
2023-04-27T05:57:42.025Z,4.90
2023-04-27T06:00:11.264Z,5.33
2023-04-27T06:02:42.087Z,4.50
2023-04-27T06:05:11.186Z,4.37
2023-04-27T06:07:39.324Z,4.80
2023-04-27T06:10:08.575Z,4.40
2023-04-27T06:12:36.412Z,4.43
2023-04-27T06:15:08.563Z,3.77
2023-04-27T06:17:36.575Z,4.30
2023-04-27T06:20:07.467Z,3.87
2023-04-27T06:22:35.322Z,4.63
2023-04-27T06:25:03.401Z,4.10
2023-04-27T06:27:31.269Z,4.17
2023-04-27T06:29:59.363Z,4.10
2023-04-27T06:32:28.596Z,3.53
2023-04-27T06:34:56.634Z,3.97
2023-04-27T06:37:24.739Z,4.43
2023-04-27T06:39:52.654Z,4.00
2023-04-27T06:42:20.484Z,3.80
2023-04-27T06:44:48.759Z,4.03
2023-04-27T06:47:16.580Z,4.07
2023-04-27T06:49:47.918Z,3.70
2023-04-27T06:52:16.846Z,3.43
2023-04-27T06:54:44.688Z,4.20
2023-04-27T06:57:12.536Z,3.10
2023-04-27T06:59:40.925Z,3.10
2023-04-27T07:02:09.226Z,4.07
2023-04-27T07:04:38.325Z,3.60
2023-04-27T07:07:07.615Z,3.00
2023-04-27T07:09:35.548Z,2.70
2023-04-27T07:12:03.426Z,2.97
2023-04-27T07:14:31.322Z,3.20
2023-04-27T07:16:59.172Z,2.53
2023-04-27T07:19:27.166Z,3.10
2023-04-27T07:21:55.000Z,3.30
2023-04-27T07:24:24.547Z,2.60
2023-04-27T07:26:52.383Z,3.10
2023-04-27T07:29:27.183Z,2.70
2023-04-27T07:31:55.676Z,2.53
2023-04-27T07:34:23.967Z,2.77
2023-04-27T07:36:54.096Z,2.53
2023-04-27T07:39:22.448Z,2.47
2023-04-27T07:41:51.864Z,2.60
2023-04-27T07:44:20.005Z,2.40
2023-04-27T07:46:48.994Z,2.50
2023-04-27T07:49:17.008Z,2.80
2023-04-27T07:51:44.844Z,2.80
2023-04-27T07:54:12.725Z,2.30
2023-04-27T07:56:42.796Z,2.43
2023-04-27T07:59:12.418Z,2.40
2023-04-27T08:01:40.472Z,2.30
2023-04-27T08:04:08.520Z,2.17
2023-04-27T08:06:37.085Z,3.00
2023-04-27T08:09:05.797Z,2.23
2023-04-27T08:11:33.580Z,2.30
2023-04-27T08:14:01.412Z,2.47
2023-04-27T08:16:31.288Z,2.43
2023-04-27T08:19:00.581Z,2.23
2023-04-27T08:21:29.556Z,2.23
2023-04-27T08:23:57.911Z,2.50
2023-04-27T08:26:26.452Z,2.70
2023-04-27T08:28:56.363Z,2.40
2023-04-27T08:31:24.293Z,2.63
2023-04-27T08:33:53.634Z,2.27
2023-04-27T08:36:24.358Z,2.37
2023-04-27T08:38:52.742Z,2.00
2023-04-27T08:41:22.468Z,2.20
2023-04-27T08:43:51.219Z,2.50
2023-04-27T08:46:20.766Z,2.30
2023-04-27T08:48:51.099Z,2.40
2023-04-27T08:51:21.397Z,2.13
2023-04-27T08:53:51.558Z,3.00
2023-04-27T08:56:19.737Z,2.57
2023-04-27T08:58:47.658Z,1.90
2023-04-27T09:01:16.156Z,2.50
2023-04-27T09:03:46.796Z,2.80
2023-04-27T09:06:15.866Z,2.00
2023-04-27T09:08:46.718Z,2.60
2023-04-27T09:11:14.967Z,2.67
2023-04-27T09:13:45.574Z,2.63
2023-04-27T09:16:13.994Z,2.67
2023-04-27T09:18:43.940Z,2.50
2023-04-27T09:21:11.904Z,2.40
2023-04-27T09:23:40.757Z,2.40
2023-04-27T09:26:10.077Z,2.57
2023-04-27T09:28:39.949Z,2.40
2023-04-27T09:31:09.381Z,2.47
2023-04-27T09:33:37.644Z,2.70
2023-04-27T09:36:07.250Z,2.50
2023-04-27T09:38:35.328Z,2.00
2023-04-27T09:41:03.870Z,2.53
2023-04-27T09:43:33.164Z,2.77
2023-04-27T09:46:01.694Z,2.70
2023-04-27T09:48:29.627Z,2.70
2023-04-27T09:50:57.487Z,2.43
2023-04-27T09:53:28.271Z,3.20
2023-04-27T09:56:04.475Z,2.53
2023-04-27T09:58:50.970Z,2.70
2023-04-27T10:01:24.158Z,3.20
2023-04-27T10:04:03.926Z,3.37
2023-04-27T10:06:56.493Z,2.93
2023-04-27T10:09:25.913Z,3.00
2023-04-27T10:11:55.461Z,3.03
2023-04-27T10:14:25.679Z,3.37
2023-04-27T10:16:54.762Z,2.80
2023-04-27T10:19:23.859Z,2.77
2023-04-27T10:22:00.451Z,2.97
2023-04-27T10:24:37.872Z,3.00
2023-04-27T10:27:06.975Z,2.77
2023-04-27T10:29:42.017Z,2.80
2023-04-27T10:32:11.429Z,2.53
2023-04-27T10:34:39.721Z,3.40
2023-04-27T10:37:08.799Z,4.07
2023-04-27T10:39:47.853Z,2.90
2023-04-27T10:42:28.484Z,2.50
2023-04-27T10:44:59.396Z,3.20
2023-04-27T10:47:38.613Z,3.13
2023-04-27T10:50:08.612Z,3.10
2023-04-27T10:52:36.654Z,3.10
2023-04-27T10:55:18.027Z,3.13
2023-04-27T10:57:50.274Z,3.40
2023-04-27T11:00:24.051Z,2.87
2023-04-27T11:02:52.794Z,3.07
2023-04-27T11:05:22.443Z,3.20
2023-04-27T11:07:50.643Z,2.83
2023-04-27T11:10:19.943Z,3.03
2023-04-27T11:12:48.164Z,3.00
2023-04-27T11:15:16.060Z,2.80
2023-04-27T11:17:45.328Z,3.03
2023-04-27T11:20:13.404Z,3.10
2023-04-27T11:22:47.558Z,2.80
2023-04-27T11:25:18.714Z,3.10
2023-04-27T11:27:46.652Z,2.70
2023-04-27T11:30:22.350Z,3.10
2023-04-27T11:32:53.789Z,3.00
2023-04-27T11:35:21.865Z,2.90
2023-04-27T11:37:59.459Z,3.20
2023-04-27T11:40:29.140Z,3.00
2023-04-27T11:43:03.187Z,3.00
2023-04-27T11:45:34.066Z,3.37
2023-04-27T11:48:03.834Z,2.70
2023-04-27T11:50:32.036Z,3.07
2023-04-27T11:53:01.844Z,2.97
2023-04-27T11:55:29.700Z,3.13
2023-04-27T11:57:59.937Z,3.50
2023-04-27T12:00:28.144Z,3.07
2023-04-27T12:02:56.108Z,3.23
2023-04-27T12:05:25.861Z,3.50
2023-04-27T12:07:54.034Z,2.97
2023-04-27T12:10:22.154Z,3.63
2023-04-27T12:12:50.328Z,2.93
2023-04-27T12:15:18.467Z,3.00
2023-04-27T12:17:46.462Z,2.63
2023-04-27T12:20:14.686Z,2.67
2023-04-27T12:22:43.970Z,2.57
2023-04-27T12:25:11.854Z,3.10
2023-04-27T12:27:39.677Z,3.13
2023-04-27T12:30:09.717Z,2.40
2023-04-27T12:32:37.685Z,2.33
2023-04-27T12:35:06.340Z,2.50
2023-04-27T12:37:34.257Z,2.90
2023-04-27T12:40:05.955Z,3.00
2023-04-27T12:42:34.021Z,2.90
2023-04-27T12:45:02.181Z,2.70
2023-04-27T12:47:46.395Z,2.70
2023-04-27T12:50:18.088Z,2.33
2023-04-27T12:52:45.918Z,2.57
2023-04-27T12:55:29.014Z,2.30
2023-04-27T12:58:00.615Z,2.70
2023-04-27T13:00:29.504Z,2.47
2023-04-27T13:02:58.434Z,2.37
2023-04-27T13:05:26.763Z,2.00
2023-04-27T13:07:54.596Z,2.17
2023-04-27T13:10:23.782Z,1.80
2023-04-27T13:12:51.648Z,2.00
2023-04-27T13:15:19.699Z,2.30
2023-04-27T13:17:48.254Z,2.07
2023-04-27T13:20:16.337Z,2.80
2023-04-27T13:22:44.213Z,2.50
2023-04-27T13:25:12.252Z,1.93
2023-04-27T13:27:41.529Z,2.37
2023-04-27T13:30:10.564Z,2.00
2023-04-27T13:32:38.506Z,2.20
2023-04-27T13:35:07.800Z,2.40
2023-04-27T13:37:35.654Z,2.10
2023-04-27T13:40:05.313Z,2.10
2023-04-27T13:42:33.546Z,2.30
2023-04-27T13:45:04.244Z,1.90
2023-04-27T13:47:36.803Z,2.23
2023-04-27T13:50:07.627Z,1.97
2023-04-27T13:52:35.980Z,1.80
2023-04-27T13:55:03.918Z,1.80
2023-04-27T13:57:31.903Z,1.70
2023-04-27T14:00:00.450Z,1.77
2023-04-27T14:02:30.971Z,2.20
2023-04-27T14:04:58.984Z,2.30
2023-04-27T14:07:27.460Z,1.90
2023-04-27T14:09:55.360Z,1.70
2023-04-27T14:12:23.463Z,1.60
2023-04-27T14:14:51.407Z,1.77
2023-04-27T14:17:19.242Z,1.70
2023-04-27T14:19:48.454Z,1.50
2023-04-27T14:22:16.305Z,1.70
2023-04-27T14:24:44.172Z,1.70
2023-04-27T14:27:17.067Z,2.23
2023-04-27T14:29:44.943Z,1.70
2023-04-27T14:32:12.894Z,1.83
2023-04-27T14:34:41.056Z,1.80
2023-04-27T14:37:10.282Z,1.40
2023-04-27T14:39:38.431Z,1.60
2023-04-27T14:42:06.359Z,1.60
2023-04-27T14:44:36.199Z,2.20
2023-04-27T14:47:04.210Z,1.90
2023-04-27T14:49:32.200Z,1.87
2023-04-27T14:52:03.313Z,2.20
2023-04-27T14:54:32.559Z,2.43
2023-04-27T14:57:01.103Z,2.40
2023-04-27T14:59:29.026Z,2.20
2023-04-27T15:01:57.079Z,2.10
2023-04-27T15:04:25.146Z,2.00
2023-04-27T15:06:53.252Z,2.30
2023-04-27T15:09:21.093Z,2.33
2023-04-27T15:11:50.334Z,1.87
2023-04-27T15:14:18.168Z,1.80
2023-04-27T15:16:46.076Z,2.20
2023-04-27T15:19:14.484Z,2.27
2023-04-27T15:21:42.687Z,1.97
2023-04-27T15:24:11.034Z,2.07
2023-04-27T15:26:39.845Z,2.10
2023-04-27T15:29:09.081Z,2.20
2023-04-27T15:31:37.158Z,2.20
2023-04-27T15:34:05.143Z,2.17
2023-04-27T15:36:33.549Z,2.20
2023-04-27T15:39:01.372Z,2.10
2023-04-27T15:41:29.294Z,2.00
2023-04-27T15:43:57.115Z,2.30
2023-04-27T15:46:26.360Z,2.30
2023-04-27T15:48:54.202Z,2.60
2023-04-27T15:51:22.077Z,2.03
2023-04-27T15:53:49.900Z,2.67
2023-04-27T15:56:17.772Z,2.20
2023-04-27T15:58:46.121Z,2.50
2023-04-27T16:01:14.083Z,2.37
2023-04-27T16:03:43.918Z,1.93
2023-04-27T16:06:11.885Z,2.23
2023-04-27T16:08:39.687Z,2.07
2023-04-27T16:11:07.828Z,2.00
2023-04-27T16:13:35.677Z,2.00
2023-04-27T16:16:04.431Z,1.80
2023-04-27T16:18:32.358Z,2.00
2023-04-27T16:21:01.805Z,2.40
2023-04-27T16:23:29.629Z,2.00
2023-04-27T16:25:57.497Z,2.23
2023-04-27T16:28:25.482Z,2.00
2023-04-27T16:30:53.339Z,2.00
2023-04-27T16:33:21.384Z,1.80
2023-04-27T16:35:49.967Z,1.87
2023-04-27T16:38:19.391Z,3.03
2023-04-27T16:40:47.336Z,3.70
2023-04-27T16:43:15.344Z,1.77
2023-04-27T16:45:43.211Z,2.30
2023-04-27T16:48:12.370Z,2.53
2023-04-27T16:50:40.941Z,2.83
2023-04-27T16:53:13.726Z,2.10
2023-04-27T16:55:42.982Z,2.20
2023-04-27T16:58:11.150Z,2.40
2023-04-27T17:00:39.590Z,1.97
2023-04-27T17:03:07.510Z,2.00
2023-04-27T17:05:35.442Z,1.70
2023-04-27T17:08:05.188Z,2.07
2023-04-27T17:10:33.554Z,1.90
2023-04-27T17:13:02.820Z,2.20
2023-04-27T17:15:30.959Z,2.20
2023-04-27T17:17:59.402Z,2.40
2023-04-27T17:20:28.160Z,2.13
2023-04-27T17:22:56.124Z,2.30
2023-04-27T17:25:24.297Z,2.30
2023-04-27T17:27:52.166Z,2.20
2023-04-27T17:30:21.495Z,2.50
2023-04-27T17:32:49.471Z,2.57
2023-04-27T17:35:20.449Z,2.50
2023-04-27T17:37:48.348Z,2.20
2023-04-27T17:40:20.589Z,2.47
2023-04-27T17:42:48.496Z,2.00
2023-04-27T17:45:16.500Z,2.40
2023-04-27T17:47:46.222Z,2.10
2023-04-27T17:50:15.072Z,2.10
2023-04-27T17:52:43.257Z,2.20
2023-04-27T17:55:11.086Z,2.17
2023-04-27T17:57:39.107Z,2.30
2023-04-27T18:00:09.165Z,1.90
2023-04-27T18:02:37.679Z,2.13
2023-04-27T18:05:07.830Z,2.20
2023-04-27T18:07:36.278Z,2.10
2023-04-27T18:10:04.701Z,2.10
2023-04-27T18:12:32.696Z,1.67
2023-04-27T18:15:02.959Z,2.30
2023-04-27T18:17:32.548Z,2.70
2023-04-27T18:20:08.129Z,2.00
2023-04-27T18:22:39.895Z,2.40
2023-04-27T18:25:08.989Z,2.87
2023-04-27T18:27:38.168Z,2.13
2023-04-27T18:30:07.798Z,2.40
2023-04-27T18:32:36.184Z,2.20
2023-04-27T18:35:05.744Z,2.73
2023-04-27T18:37:33.662Z,2.80
2023-04-27T18:40:05.799Z,3.00
2023-04-27T18:42:33.748Z,2.50
2023-04-27T18:45:01.897Z,2.30
2023-04-27T18:47:30.060Z,2.57
2023-04-27T18:49:58.065Z,2.30
2023-04-27T18:52:26.316Z,2.33
2023-04-27T18:54:55.190Z,2.00
2023-04-27T18:57:24.472Z,2.57
2023-04-27T18:59:52.787Z,2.60
2023-04-27T19:02:20.876Z,2.47
2023-04-27T19:04:57.008Z,2.30
2023-04-27T19:07:29.811Z,2.07
2023-04-27T19:09:57.640Z,2.13
2023-04-27T19:12:27.078Z,2.30
2023-04-27T19:14:57.673Z,2.40
2023-04-27T19:17:26.198Z,2.20
2023-04-27T19:19:54.178Z,2.57
2023-04-27T19:22:22.495Z,2.83
2023-04-27T19:24:50.379Z,2.30
2023-04-27T19:27:18.421Z,2.50
2023-04-27T19:29:51.873Z,2.70
2023-04-27T19:32:20.347Z,2.20
2023-04-27T19:34:48.403Z,2.33
2023-04-27T19:37:16.270Z,2.27
2023-04-27T19:39:44.086Z,2.53
2023-04-27T19:42:12.062Z,2.60
2023-04-27T19:44:39.852Z,2.33
2023-04-27T19:47:10.791Z,1.80
2023-04-27T19:49:39.034Z,1.83
2023-04-27T19:52:07.610Z,1.87
2023-04-27T19:54:36.101Z,2.60
2023-04-27T19:57:04.059Z,2.30
2023-04-27T19:59:31.900Z,2.10
2023-04-27T20:01:59.784Z,2.47
2023-04-27T20:04:29.202Z,2.33
2023-04-27T20:06:57.228Z,2.60
2023-04-27T20:09:25.101Z,2.27
2023-04-27T20:11:54.875Z,2.50
2023-04-27T20:14:22.755Z,2.10
2023-04-27T20:16:50.726Z,2.50
2023-04-27T20:19:19.349Z,2.30
2023-04-27T20:21:48.757Z,1.97
2023-04-27T20:24:17.028Z,2.33
2023-04-27T20:26:46.455Z,2.37
2023-04-27T20:29:14.463Z,2.40
2023-04-27T20:31:42.721Z,2.10
2023-04-27T20:34:10.549Z,2.20
2023-04-27T20:36:38.514Z,2.50
2023-04-27T20:39:09.062Z,2.13
2023-04-27T20:41:38.517Z,2.33
2023-04-27T20:44:07.140Z,2.47
2023-04-27T20:46:35.112Z,2.53
2023-04-27T20:49:03.250Z,2.40
2023-04-27T20:51:32.857Z,2.50
2023-04-27T20:54:03.813Z,2.63
2023-04-27T20:56:33.259Z,2.53
2023-04-27T20:59:01.142Z,2.27
2023-04-27T21:01:29.055Z,2.37
2023-04-27T21:03:57.469Z,2.00
2023-04-27T21:06:25.343Z,3.10
2023-04-27T21:08:53.155Z,2.53
2023-04-27T21:11:21.221Z,2.70
2023-04-27T21:13:50.406Z,2.33
2023-04-27T21:16:18.289Z,2.70
2023-04-27T21:18:46.323Z,2.83
2023-04-27T21:21:14.803Z,2.67
2023-04-27T21:23:42.657Z,2.70
2023-04-27T21:26:10.852Z,2.17
2023-04-27T21:28:40.598Z,2.40
2023-04-27T21:31:09.850Z,2.50
2023-04-27T21:33:37.975Z,2.67
2023-04-27T21:36:06.600Z,2.20
2023-04-27T21:38:34.495Z,2.70
2023-04-27T21:41:02.576Z,2.20
2023-04-27T21:43:30.474Z,2.50
2023-04-27T21:45:58.482Z,2.20
2023-04-27T21:48:27.939Z,2.20
2023-04-27T21:50:55.774Z,2.30
2023-04-27T21:53:23.643Z,2.00
2023-04-27T21:55:51.743Z,2.67
2023-04-27T21:58:19.635Z,2.23
2023-04-27T22:00:48.670Z,1.90
2023-04-27T22:03:16.837Z,2.10
2023-04-27T22:05:48.835Z,2.20
2023-04-27T22:08:18.253Z,2.10
2023-04-27T22:10:46.569Z,2.27
2023-04-27T22:15:45.842Z,2.27
2023-04-27T22:18:14.442Z,2.00
2023-04-27T22:20:42.510Z,2.10
2023-04-27T22:23:11.757Z,2.20
2023-04-27T22:25:42.506Z,1.93
2023-04-27T22:28:10.524Z,2.30
2023-04-27T22:30:38.411Z,2.00
2023-04-27T22:33:06.343Z,2.10
2023-04-27T22:35:34.517Z,2.23
2023-04-27T22:38:02.346Z,2.43
2023-04-27T22:40:31.519Z,2.27
2023-04-27T22:42:59.336Z,2.20
2023-04-27T22:45:27.124Z,1.87
2023-04-27T22:47:55.042Z,2.60
2023-04-27T22:50:23.038Z,2.00
2023-04-27T22:52:52.943Z,1.87
2023-04-27T22:55:21.245Z,2.77
2023-04-27T22:57:51.141Z,2.00
2023-04-27T23:00:19.233Z,2.17
2023-04-27T23:02:47.600Z,1.80
2023-04-27T23:05:16.581Z,1.93
2023-04-27T23:07:46.259Z,2.40
2023-04-27T23:10:15.235Z,2.10
2023-04-27T23:12:43.103Z,2.13
2023-04-27T23:15:12.897Z,1.90
2023-04-27T23:17:40.700Z,2.47
2023-04-27T23:20:24.131Z,2.07
2023-04-27T23:22:55.707Z,2.50
2023-04-27T23:25:23.638Z,2.47
2023-04-27T23:27:52.528Z,2.60
2023-04-27T23:30:22.562Z,2.47
2023-04-27T23:32:50.558Z,2.47
2023-04-27T23:35:18.642Z,2.10
2023-04-27T23:37:46.471Z,2.40
2023-04-27T23:40:14.355Z,2.27
2023-04-27T23:42:42.693Z,2.30
2023-04-27T23:45:11.362Z,2.10
2023-04-27T23:47:40.623Z,2.20
2023-04-27T23:50:09.462Z,1.90
2023-04-27T23:52:37.372Z,2.13
2023-04-27T23:55:05.912Z,2.40
2023-04-27T23:57:33.734Z,2.20
